Rheintal — V2MA5 — position and weather

sailwx.info

Track history (hours):
 
Tides and Currents Weather Stations Pressure Air Temp Water Temp Dewpoint Dewpoint Depression Visibility Wind Speed Wind Dir Waves Ship Positions

Rheintal

Last reported at 2017-Oct-22 18:42 UTC. Time now 2017-Oct-23 05:52 UTC.
Position N 39°45' E 025°48'.

Length 101 m; draft 6.6 m.

Type: Cargo ship. MMSI: 304285000.

Date/timePositionNaut miles runAvg speedWind from/ knotsBaromVisibWave heightAir tempDewpointWater temp
2017-Oct-22 18:42N 39°45' E 025°48'1712.0
2017-Oct-22 17:18N 39°60' E 025°58'2211.2
2017-Oct-22 15:21N 40°11' E 026°23'10910.0
2017-Oct-22 04:26N 40°52' E 028°35'16 2.1
2017-Oct-21 20:48N 40°59' E 028°55'3 4.5
2017-Oct-21 20:09N 40°59' E 028°59'18 0.7
2017-Oct-20 16:37N 41°17' E 029°01'0 0.0
2017-Oct-20 16:16N 41°17' E 029°01'0 0.0
2017-Oct-20 15:46N 41°17' E 029°01'0 0.0
2017-Oct-20 15:19N 41°17' E 029°01'0 0.0
2017-Oct-20 14:46N 41°17' E 029°01'0 0.0
2017-Oct-20 14:22N 41°17' E 029°01'0 0.0
2017-Oct-20 10:31N 41°17' E 029°01'0 0.0
2017-Oct-20 10:05N 41°17' E 029°01'0 0.2
2017-Oct-20 10:00N 41°17' E 029°01'1 1.5
2017-Oct-20 09:27N 41°17' E 028°60'4 9.1
2017-Oct-20 08:58N 41°21' E 029°02'711.9
2017-Oct-20 08:22N 41°25' E 029°10'412.1
2017-Oct-20 08:00N 41°29' E 029°12'613.1
2017-Oct-20 07:31N 41°36' E 029°13'712.8
2017-Oct-20 06:57N 41°43' E 029°14'1312.2
2017-Oct-20 05:55N 41°55' E 029°16'512.1
2017-Oct-20 05:30N 42°00' E 029°17'612.1
2017-Oct-20 05:00N 42°06' E 029°19'612.2
2017-Oct-20 04:29N 42°12' E 029°20'612.2
2017-Oct-20 04:00N 42°18' E 029°21'612.3
2017-Oct-20 03:30N 42°24' E 029°23'612.0
2017-Oct-20 03:00N 42°30' E 029°24'612.1
2017-Oct-20 02:30N 42°36' E 029°26'612.2
2017-Oct-20 02:00N 42°42' E 029°27'612.3
2017-Oct-20 01:30N 42°48' E 029°28'612.2
2017-Oct-20 01:00N 42°54' E 029°30'612.1
2017-Oct-20 00:30N 43°00' E 029°31'612.2
2017-Oct-20 00:00N 43°06' E 029°32'612.2
2017-Oct-19 23:30N 43°12' E 029°33'612.3
2017-Oct-19 23:00N 43°18' E 029°34'612.0
2017-Oct-19 22:30N 43°24' E 029°36'611.9
2017-Oct-19 22:00N 43°30' E 029°37'611.9
2017-Oct-19 21:30N 43°36' E 029°39'611.7
2017-Oct-19 21:00N 43°42' E 029°40'611.4
2017-Oct-19 20:30N 43°48' E 029°42'611.5
2017-Oct-19 20:00N 43°53' E 029°43'611.7
2017-Oct-19 19:30N 43°59' E 029°44'611.6
2017-Oct-19 18:59N 44°05' E 029°45'611.7
2017-Oct-19 18:30N 44°10' E 029°47'611.6
2017-Oct-19 18:00N 44°16' E 029°48'611.8
2017-Oct-19 17:30N 44°22' E 029°50'611.6
2017-Oct-19 17:00N 44°28' E 029°51'611.7
2017-Oct-19 16:31N 44°33' E 029°53'611.6
2017-Oct-19 16:00N 44°39' E 029°55'611.7
2017-Oct-19 15:31N 44°45' E 029°55'611.6
2017-Oct-19 15:00N 44°51' E 029°55'611.4
2017-Oct-19 14:30N 44°56' E 029°54'611.2
2017-Oct-19 14:00N 45°02' E 029°54'4 8.9
2017-Oct-19 13:30N 45°06' E 029°53'5 8.5
2017-Oct-19 12:56N 45°08' E 029°47'4 8.7
2017-Oct-19 12:27N 45°10' E 029°41'4 8.3
2017-Oct-19 11:59N 45°10' E 029°36'20 8.6
2017-Oct-19 09:37N 45°10' E 029°07'  
Track history (hours):
 
Tides and Currents Weather Stations Pressure Air Temp Water Temp Dewpoint Dewpoint Depression Visibility Wind Speed Wind Dir Waves Ship Positions

Rheintal

Last reported at 2017-Oct-22 18:42 UTC. Time now 2017-Oct-23 05:52 UTC.
Position N 39°45' E 025°48'.

Length 101 m; draft 6.6 m.

Type: Cargo ship. MMSI: 304285000.

Date/timePositionNaut miles runAvg speedWind from/ knotsBaromVisibWave heightAir tempDewpointWater temp
2017-Oct-22 18:42N 39°45' E 025°48'1712.0
2017-Oct-22 17:18N 39°60' E 025°58'2211.2
2017-Oct-22 15:21N 40°11' E 026°23'10910.0
2017-Oct-22 04:26N 40°52' E 028°35'16 2.1
2017-Oct-21 20:48N 40°59' E 028°55'3 4.5
2017-Oct-21 20:09N 40°59' E 028°59'18 0.7
2017-Oct-20 16:37N 41°17' E 029°01'0 0.0
2017-Oct-20 16:16N 41°17' E 029°01'0 0.0
2017-Oct-20 15:46N 41°17' E 029°01'0 0.0
2017-Oct-20 15:19N 41°17' E 029°01'0 0.0
2017-Oct-20 14:46N 41°17' E 029°01'0 0.0
2017-Oct-20 14:22N 41°17' E 029°01'0 0.0
2017-Oct-20 10:31N 41°17' E 029°01'0 0.0
2017-Oct-20 10:05N 41°17' E 029°01'0 0.2
2017-Oct-20 10:00N 41°17' E 029°01'1 1.5
2017-Oct-20 09:27N 41°17' E 028°60'4 9.1
2017-Oct-20 08:58N 41°21' E 029°02'711.9
2017-Oct-20 08:22N 41°25' E 029°10'412.1
2017-Oct-20 08:00N 41°29' E 029°12'613.1
2017-Oct-20 07:31N 41°36' E 029°13'712.8
2017-Oct-20 06:57N 41°43' E 029°14'1312.2
2017-Oct-20 05:55N 41°55' E 029°16'512.1
2017-Oct-20 05:30N 42°00' E 029°17'612.1
2017-Oct-20 05:00N 42°06' E 029°19'612.2
2017-Oct-20 04:29N 42°12' E 029°20'612.2
2017-Oct-20 04:00N 42°18' E 029°21'612.3
2017-Oct-20 03:30N 42°24' E 029°23'612.0
2017-Oct-20 03:00N 42°30' E 029°24'612.1
2017-Oct-20 02:30N 42°36' E 029°26'612.2
2017-Oct-20 02:00N 42°42' E 029°27'612.3
2017-Oct-20 01:30N 42°48' E 029°28'612.2
2017-Oct-20 01:00N 42°54' E 029°30'612.1
2017-Oct-20 00:30N 43°00' E 029°31'612.2
2017-Oct-20 00:00N 43°06' E 029°32'612.2
2017-Oct-19 23:30N 43°12' E 029°33'612.3
2017-Oct-19 23:00N 43°18' E 029°34'612.0
2017-Oct-19 22:30N 43°24' E 029°36'611.9
2017-Oct-19 22:00N 43°30' E 029°37'611.9
2017-Oct-19 21:30N 43°36' E 029°39'611.7
2017-Oct-19 21:00N 43°42' E 029°40'611.4
2017-Oct-19 20:30N 43°48' E 029°42'611.5
2017-Oct-19 20:00N 43°53' E 029°43'611.7
2017-Oct-19 19:30N 43°59' E 029°44'611.6
2017-Oct-19 18:59N 44°05' E 029°45'611.7
2017-Oct-19 18:30N 44°10' E 029°47'611.6
2017-Oct-19 18:00N 44°16' E 029°48'611.8
2017-Oct-19 17:30N 44°22' E 029°50'611.6
2017-Oct-19 17:00N 44°28' E 029°51'611.7
2017-Oct-19 16:31N 44°33' E 029°53'611.6
2017-Oct-19 16:00N 44°39' E 029°55'611.7
2017-Oct-19 15:31N 44°45' E 029°55'611.6
2017-Oct-19 15:00N 44°51' E 029°55'611.4
2017-Oct-19 14:30N 44°56' E 029°54'611.2
2017-Oct-19 14:00N 45°02' E 029°54'4 8.9
2017-Oct-19 13:30N 45°06' E 029°53'5 8.5
2017-Oct-19 12:56N 45°08' E 029°47'4 8.7
2017-Oct-19 12:27N 45°10' E 029°41'4 8.3
2017-Oct-19 11:59N 45°10' E 029°36'20 8.6
2017-Oct-19 09:37N 45°10' E 029°07'  

Dump ship's entire track history